createdAt,value
2018-09-02T00:03:55.958Z,11.40
2018-09-02T00:13:21.392Z,10.94
2018-09-02T00:15:49.148Z,10.90
2018-09-02T00:18:15.623Z,10.88
2018-09-02T00:20:42.518Z,10.94
2018-09-02T00:23:09.006Z,10.98
2018-09-02T00:25:35.468Z,10.93
2018-09-02T00:28:02.462Z,10.89
2018-09-02T00:42:59.915Z,10.67
2018-09-02T00:49:19.295Z,10.71
2018-09-02T00:58:49.641Z,10.49
2018-09-02T01:01:16.304Z,10.46
2018-09-02T01:03:43.352Z,10.46
2018-09-02T01:06:09.825Z,10.50
2018-09-02T01:08:36.301Z,10.44
2018-09-02T01:22:49.117Z,10.56
2018-09-02T01:25:15.780Z,10.51
2018-09-02T01:27:42.939Z,10.45
2018-09-02T01:30:09.604Z,10.45
2018-09-02T01:32:36.196Z,10.40
2018-09-02T01:35:02.725Z,10.33
2018-09-02T01:37:29.778Z,10.32
2018-09-02T01:39:56.485Z,10.30
2018-09-02T01:42:22.942Z,10.25
2018-09-02T01:44:49.841Z,10.23
2018-09-02T01:47:16.333Z,10.19
2018-09-02T01:49:42.885Z,10.13
2018-09-02T01:52:09.737Z,10.10
2018-09-02T01:54:36.217Z,10.10
2018-09-02T01:57:02.677Z,10.13
2018-09-02T01:59:29.662Z,10.13
2018-09-02T02:01:56.150Z,10.12
2018-09-02T02:04:22.663Z,10.17
2018-09-02T02:06:49.548Z,10.20
2018-09-02T02:09:16.043Z,10.21
2018-09-02T02:11:42.541Z,10.19
2018-09-02T02:14:09.482Z,10.20
2018-09-02T02:16:35.970Z,10.16
2018-09-02T02:19:02.466Z,10.14
2018-09-02T02:21:30.063Z,10.08
2018-09-02T02:23:56.534Z,10.10
2018-09-02T02:31:36.993Z,10.30
2018-09-02T02:34:03.689Z,10.27
2018-09-02T02:53:37.400Z,10.22
2018-09-02T02:56:04.713Z,10.19
2018-09-02T02:58:31.226Z,10.19
2018-09-02T03:00:58.115Z,10.21
2018-09-02T03:03:24.592Z,10.35
2018-09-02T03:05:51.075Z,10.45
2018-09-02T03:08:17.588Z,10.50
2018-09-02T03:10:44.496Z,10.45
2018-09-02T03:13:10.978Z,10.42
2018-09-02T03:15:37.456Z,10.33
2018-09-02T03:18:04.376Z,10.26
2018-09-02T03:20:30.905Z,10.20
2018-09-02T03:22:57.365Z,10.18
2018-09-02T03:25:24.283Z,10.13
2018-09-02T03:27:50.765Z,10.13
2018-09-02T03:30:17.246Z,10.08
2018-09-02T03:32:43.779Z,10.06
2018-09-02T03:35:10.598Z,10.26
2018-09-02T03:37:37.065Z,10.28
2018-09-02T03:40:03.566Z,10.35
2018-09-02T03:42:30.505Z,10.29
2018-09-02T03:44:56.993Z,10.32
2018-09-02T03:47:23.492Z,10.24
2018-09-02T03:49:49.990Z,10.14
2018-09-02T03:52:16.542Z,10.14
2018-09-02T03:54:43.002Z,10.14
2018-09-02T03:57:09.469Z,10.18
2018-09-02T03:59:36.349Z,10.16
2018-09-02T04:02:02.836Z,9.99
2018-09-02T04:04:29.375Z,9.79
2018-09-02T04:06:55.889Z,9.69
2018-09-02T04:09:22.744Z,9.68
2018-09-02T04:11:49.237Z,9.68
2018-09-02T04:14:15.753Z,9.61
2018-09-02T04:16:42.262Z,9.57
2018-09-02T04:19:09.164Z,9.51
2018-09-02T04:21:35.653Z,9.55
2018-09-02T04:24:02.141Z,9.60
2018-09-02T04:26:28.625Z,9.77
2018-09-02T04:28:55.496Z,9.67
2018-09-02T04:31:22.026Z,9.56
2018-09-02T04:33:48.572Z,9.55
2018-09-02T04:36:15.395Z,9.55
2018-09-02T04:38:41.845Z,9.65
2018-09-02T04:41:08.335Z,9.73
2018-09-02T04:43:35.197Z,9.76
2018-09-02T04:46:01.655Z,9.78
2018-09-02T04:48:28.113Z,9.86
2018-09-02T04:50:54.627Z,9.99
2018-09-02T04:53:21.110Z,10.03
2018-09-02T04:55:47.602Z,10.02
2018-09-02T04:58:14.429Z,10.01
2018-09-02T05:00:40.913Z,9.98
2018-09-02T05:03:07.394Z,9.95
2018-09-02T05:05:34.343Z,9.79
2018-09-02T05:08:00.814Z,9.65
2018-09-02T05:10:27.261Z,9.60
2018-09-02T05:12:53.742Z,9.62
2018-09-02T05:15:20.658Z,9.62
2018-09-02T05:17:47.118Z,9.76
2018-09-02T05:20:13.582Z,9.78
2018-09-02T05:22:40.360Z,9.80
2018-09-02T05:25:06.820Z,9.85
2018-09-02T05:27:33.301Z,10.12
2018-09-02T05:29:59.784Z,10.24
2018-09-02T05:32:26.705Z,10.05
2018-09-02T05:34:53.193Z,10.10
2018-09-02T05:37:19.704Z,10.22
2018-09-02T05:39:46.435Z,10.44
2018-09-02T05:42:13.261Z,10.38
2018-09-02T05:44:40.373Z,10.38
2018-09-02T05:47:06.868Z,10.37
2018-09-02T05:54:42.431Z,10.68
2018-09-02T06:10:34.062Z,11.16
2018-09-02T06:56:46.542Z,13.65
2018-09-02T07:03:32.659Z,13.87
2018-09-02T07:05:59.168Z,14.03
2018-09-02T07:08:26.168Z,14.21
2018-09-02T07:10:52.646Z,14.32
2018-09-02T07:13:19.136Z,14.51
2018-09-02T07:15:46.110Z,14.68
2018-09-02T07:18:13.266Z,14.86
2018-09-02T07:39:54.906Z,15.90
2018-09-02T07:51:23.651Z,16.40
2018-09-02T08:44:35.693Z,18.29
2018-09-02T08:47:02.215Z,18.40
2018-09-02T08:49:29.251Z,18.54
2018-09-02T09:00:23.179Z,18.98
2018-09-02T09:38:23.443Z,20.48
2018-09-02T09:47:17.243Z,20.87
2018-09-02T10:05:39.511Z,21.11
2018-09-02T10:09:22.987Z,21.37
2018-09-02T10:18:21.922Z,21.25
2018-09-02T10:20:48.694Z,21.29
2018-09-02T10:28:53.670Z,21.57
2018-09-02T10:45:26.225Z,21.68
2018-09-02T10:58:10.951Z,22.01
2018-09-02T11:00:37.520Z,22.19
2018-09-02T11:03:04.613Z,22.25
2018-09-02T11:16:47.731Z,22.49
2018-09-02T11:23:54.169Z,22.77
2018-09-02T11:26:21.588Z,22.54
2018-09-02T11:29:48.026Z,22.50
2018-09-02T11:32:14.680Z,22.76
2018-09-02T11:34:41.295Z,22.82
2018-09-02T11:43:19.850Z,23.38
2018-09-02T11:55:00.610Z,23.17
2018-09-02T12:08:22.418Z,23.08
2018-09-02T12:28:29.987Z,23.81
2018-09-02T12:30:56.754Z,23.95
2018-09-02T12:44:56.260Z,24.42
2018-09-02T15:06:50.195Z,27.08
2018-09-02T16:34:05.843Z,21.09
2018-09-02T16:41:07.704Z,20.90
2018-09-02T16:44:55.629Z,20.86
2018-09-02T19:24:18.718Z,18.61
2018-09-02T19:26:45.401Z,18.55
2018-09-02T19:46:17.676Z,18.16
2018-09-02T19:54:23.893Z,18.16
2018-09-02T20:09:51.702Z,18.08
2018-09-02T20:19:16.432Z,18.06
2018-09-02T20:43:22.409Z,17.95
2018-09-02T20:45:50.481Z,17.94
2018-09-02T20:48:17.000Z,17.92
2018-09-02T20:53:21.662Z,18.02
2018-09-02T20:55:48.133Z,18.01
2018-09-02T20:58:15.611Z,17.96
2018-09-02T21:00:43.317Z,17.94
